sensor_id;sensor_type;location;lat;lon;timestamp;P1;durP1;ratioP1;P2;durP2;ratioP2
64712;SDS011;51140;45.340;5.980;2023-12-14T00:00:35;16.33;;;8.95;;
64712;SDS011;51140;45.340;5.980;2023-12-14T00:03:01;12.93;;;8.30;;
64712;SDS011;51140;45.340;5.980;2023-12-14T00:05:26;13.90;;;8.30;;
64712;SDS011;51140;45.340;5.980;2023-12-14T00:07:51;12.48;;;7.00;;
64712;SDS011;51140;45.340;5.980;2023-12-14T00:10:17;11.02;;;6.03;;
64712;SDS011;51140;45.340;5.980;2023-12-14T00:12:45;8.57;;;4.53;;
64712;SDS011;51140;45.340;5.980;2023-12-14T00:15:10;9.25;;;6.00;;
64712;SDS011;51140;45.340;5.980;2023-12-14T00:17:36;11.82;;;6.22;;
64712;SDS011;51140;45.340;5.980;2023-12-14T00:20:01;16.30;;;8.52;;
64712;SDS011;51140;45.340;5.980;2023-12-14T00:22:28;13.75;;;7.43;;
64712;SDS011;51140;45.340;5.980;2023-12-14T00:24:53;14.32;;;7.95;;
64712;SDS011;51140;45.340;5.980;2023-12-14T00:27:18;15.65;;;7.72;;
64712;SDS011;51140;45.340;5.980;2023-12-14T00:29:44;14.55;;;7.95;;
64712;SDS011;51140;45.340;5.980;2023-12-14T00:32:09;23.13;;;13.02;;
64712;SDS011;51140;45.340;5.980;2023-12-14T00:34:34;24.60;;;15.73;;
64712;SDS011;51140;45.340;5.980;2023-12-14T00:37:00;21.27;;;14.32;;
64712;SDS011;51140;45.340;5.980;2023-12-14T00:39:25;21.73;;;13.45;;
64712;SDS011;51140;45.340;5.980;2023-12-14T00:41:51;23.42;;;14.63;;
64712;SDS011;51140;45.340;5.980;2023-12-14T00:44:16;20.13;;;13.80;;
64712;SDS011;51140;45.340;5.980;2023-12-14T00:46:42;18.27;;;10.98;;
64712;SDS011;51140;45.340;5.980;2023-12-14T00:49:07;14.93;;;9.85;;
64712;SDS011;51140;45.340;5.980;2023-12-14T00:51:33;15.18;;;9.40;;
64712;SDS011;51140;45.340;5.980;2023-12-14T00:53:58;16.55;;;9.85;;
64712;SDS011;51140;45.340;5.980;2023-12-14T00:56:23;18.75;;;12.38;;
64712;SDS011;51140;45.340;5.980;2023-12-14T00:58:49;21.55;;;14.40;;
64712;SDS011;51140;45.340;5.980;2023-12-14T01:01:14;21.92;;;14.00;;
64712;SDS011;51140;45.340;5.980;2023-12-14T01:03:39;21.38;;;14.00;;
64712;SDS011;51140;45.340;5.980;2023-12-14T01:06:05;22.88;;;13.48;;
64712;SDS011;51140;45.340;5.980;2023-12-14T01:08:31;20.45;;;13.18;;
64712;SDS011;51140;45.340;5.980;2023-12-14T01:10:57;19.75;;;12.30;;
64712;SDS011;51140;45.340;5.980;2023-12-14T01:13:22;21.42;;;12.68;;
64712;SDS011;51140;45.340;5.980;2023-12-14T01:15:47;18.38;;;11.10;;
64712;SDS011;51140;45.340;5.980;2023-12-14T01:18:13;17.95;;;10.77;;
64712;SDS011;51140;45.340;5.980;2023-12-14T01:20:38;13.27;;;8.65;;
64712;SDS011;51140;45.340;5.980;2023-12-14T01:23:04;13.32;;;9.35;;
64712;SDS011;51140;45.340;5.980;2023-12-14T01:25:29;16.80;;;10.48;;
64712;SDS011;51140;45.340;5.980;2023-12-14T01:27:55;16.05;;;9.52;;
64712;SDS011;51140;45.340;5.980;2023-12-14T01:30:20;16.75;;;10.30;;
64712;SDS011;51140;45.340;5.980;2023-12-14T01:32:46;16.88;;;10.20;;
64712;SDS011;51140;45.340;5.980;2023-12-14T01:35:11;15.75;;;10.48;;
64712;SDS011;51140;45.340;5.980;2023-12-14T01:37:36;17.58;;;11.52;;
64712;SDS011;51140;45.340;5.980;2023-12-14T01:40:02;17.65;;;10.43;;
64712;SDS011;51140;45.340;5.980;2023-12-14T01:42:27;16.23;;;10.20;;
64712;SDS011;51140;45.340;5.980;2023-12-14T01:44:53;14.73;;;9.60;;
64712;SDS011;51140;45.340;5.980;2023-12-14T01:47:18;16.05;;;8.55;;
64712;SDS011;51140;45.340;5.980;2023-12-14T01:49:43;13.02;;;7.95;;
64712;SDS011;51140;45.340;5.980;2023-12-14T01:52:09;14.00;;;7.82;;
64712;SDS011;51140;45.340;5.980;2023-12-14T01:54:34;9.98;;;5.90;;
64712;SDS011;51140;45.340;5.980;2023-12-14T01:57:00;9.60;;;5.60;;
64712;SDS011;51140;45.340;5.980;2023-12-14T01:59:25;10.07;;;5.93;;
64712;SDS011;51140;45.340;5.980;2023-12-14T02:01:54;7.70;;;4.20;;
64712;SDS011;51140;45.340;5.980;2023-12-14T02:04:22;9.20;;;4.43;;
64712;SDS011;51140;45.340;5.980;2023-12-14T02:06:48;8.60;;;4.20;;
64712;SDS011;51140;45.340;5.980;2023-12-14T02:09:14;7.85;;;4.18;;
64712;SDS011;51140;45.340;5.980;2023-12-14T02:11:39;9.50;;;4.85;;
64712;SDS011;51140;45.340;5.980;2023-12-14T02:14:05;12.32;;;4.72;;
64712;SDS011;51140;45.340;5.980;2023-12-14T02:16:31;9.50;;;4.72;;
64712;SDS011;51140;45.340;5.980;2023-12-14T02:18:57;9.00;;;4.78;;
64712;SDS011;51140;45.340;5.980;2023-12-14T02:21:22;8.02;;;4.18;;
64712;SDS011;51140;45.340;5.980;2023-12-14T02:23:48;8.18;;;4.07;;
64712;SDS011;51140;45.340;5.980;2023-12-14T02:26:13;8.77;;;3.85;;
64712;SDS011;51140;45.340;5.980;2023-12-14T02:28:39;11.57;;;4.28;;
64712;SDS011;51140;45.340;5.980;2023-12-14T02:31:04;9.25;;;4.18;;
64712;SDS011;51140;45.340;5.980;2023-12-14T02:33:30;9.20;;;4.60;;
64712;SDS011;51140;45.340;5.980;2023-12-14T02:35:55;10.73;;;4.78;;
64712;SDS011;51140;45.340;5.980;2023-12-14T02:38:20;10.57;;;4.60;;
64712;SDS011;51140;45.340;5.980;2023-12-14T02:40:46;9.30;;;5.82;;
64712;SDS011;51140;45.340;5.980;2023-12-14T02:43:12;9.30;;;5.82;;
64712;SDS011;51140;45.340;5.980;2023-12-14T02:45:37;13.32;;;7.22;;
64712;SDS011;51140;45.340;5.980;2023-12-14T02:48:03;10.98;;;6.28;;
64712;SDS011;51140;45.340;5.980;2023-12-14T02:50:28;10.68;;;6.45;;
64712;SDS011;51140;45.340;5.980;2023-12-14T02:52:54;12.98;;;5.95;;
64712;SDS011;51140;45.340;5.980;2023-12-14T02:55:19;11.02;;;6.18;;
64712;SDS011;51140;45.340;5.980;2023-12-14T02:57:44;11.05;;;5.78;;
64712;SDS011;51140;45.340;5.980;2023-12-14T03:00:10;12.10;;;6.32;;
64712;SDS011;51140;45.340;5.980;2023-12-14T03:02:36;10.25;;;6.15;;
64712;SDS011;51140;45.340;5.980;2023-12-14T03:05:02;10.35;;;5.35;;
64712;SDS011;51140;45.340;5.980;2023-12-14T03:07:28;11.00;;;5.65;;
64712;SDS011;51140;45.340;5.980;2023-12-14T03:09:53;9.63;;;5.05;;
64712;SDS011;51140;45.340;5.980;2023-12-14T03:12:19;11.20;;;5.57;;
64712;SDS011;51140;45.340;5.980;2023-12-14T03:14:44;11.05;;;5.85;;
64712;SDS011;51140;45.340;5.980;2023-12-14T03:17:09;10.55;;;4.93;;
64712;SDS011;51140;45.340;5.980;2023-12-14T03:19:38;10.57;;;5.85;;
64712;SDS011;51140;45.340;5.980;2023-12-14T03:22:04;12.75;;;5.70;;
64712;SDS011;51140;45.340;5.980;2023-12-14T03:24:30;9.73;;;4.72;;
64712;SDS011;51140;45.340;5.980;2023-12-14T03:26:55;9.68;;;5.63;;
64712;SDS011;51140;45.340;5.980;2023-12-14T03:29:20;10.48;;;4.97;;
64712;SDS011;51140;45.340;5.980;2023-12-14T03:31:46;12.82;;;6.20;;
64712;SDS011;51140;45.340;5.980;2023-12-14T03:34:12;10.73;;;5.82;;
64712;SDS011;51140;45.340;5.980;2023-12-14T03:36:37;9.82;;;5.78;;
64712;SDS011;51140;45.340;5.980;2023-12-14T03:39:02;11.43;;;5.80;;
64712;SDS011;51140;45.340;5.980;2023-12-14T03:41:28;12.55;;;6.45;;
64712;SDS011;51140;45.340;5.980;2023-12-14T03:43:53;12.50;;;6.80;;
64712;SDS011;51140;45.340;5.980;2023-12-14T03:46:19;13.23;;;7.50;;
64712;SDS011;51140;45.340;5.980;2023-12-14T03:48:44;11.65;;;6.60;;
64712;SDS011;51140;45.340;5.980;2023-12-14T03:51:09;12.73;;;7.25;;
64712;SDS011;51140;45.340;5.980;2023-12-14T03:53:35;13.77;;;6.90;;
64712;SDS011;51140;45.340;5.980;2023-12-14T03:56:00;13.43;;;7.35;;
64712;SDS011;51140;45.340;5.980;2023-12-14T03:58:26;13.35;;;7.30;;
64712;SDS011;51140;45.340;5.980;2023-12-14T04:00:51;13.40;;;7.82;;
64712;SDS011;51140;45.340;5.980;2023-12-14T04:03:17;14.05;;;7.18;;
64712;SDS011;51140;45.340;5.980;2023-12-14T04:05:43;12.68;;;7.65;;
64712;SDS011;51140;45.340;5.980;2023-12-14T04:08:09;14.05;;;7.90;;
64712;SDS011;51140;45.340;5.980;2023-12-14T04:10:34;12.57;;;7.00;;
64712;SDS011;51140;45.340;5.980;2023-12-14T04:13:00;20.33;;;12.95;;
64712;SDS011;51140;45.340;5.980;2023-12-14T04:15:25;22.73;;;13.35;;
64712;SDS011;51140;45.340;5.980;2023-12-14T04:17:51;22.02;;;13.43;;
64712;SDS011;51140;45.340;5.980;2023-12-14T04:20:16;19.65;;;11.52;;
64712;SDS011;51140;45.340;5.980;2023-12-14T04:22:43;19.63;;;12.48;;
64712;SDS011;51140;45.340;5.980;2023-12-14T04:25:09;29.45;;;17.52;;
64712;SDS011;51140;45.340;5.980;2023-12-14T04:27:34;25.35;;;17.20;;
64712;SDS011;51140;45.340;5.980;2023-12-14T04:30:00;28.98;;;18.17;;
64712;SDS011;51140;45.340;5.980;2023-12-14T04:32:25;22.80;;;15.15;;
64712;SDS011;51140;45.340;5.980;2023-12-14T04:34:50;21.25;;;14.57;;
64712;SDS011;51140;45.340;5.980;2023-12-14T04:37:16;23.33;;;15.73;;
64712;SDS011;51140;45.340;5.980;2023-12-14T04:39:41;23.42;;;14.80;;
64712;SDS011;51140;45.340;5.980;2023-12-14T04:42:07;80.57;;;18.75;;
64712;SDS011;51140;45.340;5.980;2023-12-14T04:44:32;20.90;;;13.55;;
64712;SDS011;51140;45.340;5.980;2023-12-14T04:46:57;23.65;;;14.52;;
64712;SDS011;51140;45.340;5.980;2023-12-14T04:49:24;26.05;;;15.40;;
64712;SDS011;51140;45.340;5.980;2023-12-14T04:51:49;21.70;;;14.13;;
64712;SDS011;51140;45.340;5.980;2023-12-14T04:54:14;19.67;;;13.13;;
64712;SDS011;51140;45.340;5.980;2023-12-14T04:56:40;22.17;;;13.50;;
64712;SDS011;51140;45.340;5.980;2023-12-14T04:59:06;20.90;;;14.23;;
64712;SDS011;51140;45.340;5.980;2023-12-14T05:01:32;17.25;;;11.82;;
64712;SDS011;51140;45.340;5.980;2023-12-14T05:03:57;19.98;;;12.82;;
64712;SDS011;51140;45.340;5.980;2023-12-14T05:06:23;20.20;;;12.60;;
64712;SDS011;51140;45.340;5.980;2023-12-14T05:08:48;17.55;;;12.25;;
64712;SDS011;51140;45.340;5.980;2023-12-14T05:11:13;16.83;;;11.40;;
64712;SDS011;51140;45.340;5.980;2023-12-14T05:13:39;18.25;;;11.85;;
64712;SDS011;51140;45.340;5.980;2023-12-14T05:16:05;19.63;;;11.43;;
64712;SDS011;51140;45.340;5.980;2023-12-14T05:18:31;16.40;;;10.80;;
64712;SDS011;51140;45.340;5.980;2023-12-14T05:20:56;19.02;;;11.45;;
64712;SDS011;51140;45.340;5.980;2023-12-14T05:23:22;19.67;;;12.32;;
64712;SDS011;51140;45.340;5.980;2023-12-14T05:25:48;18.42;;;12.43;;
64712;SDS011;51140;45.340;5.980;2023-12-14T05:28:14;17.50;;;12.48;;
64712;SDS011;51140;45.340;5.980;2023-12-14T05:30:40;21.63;;;13.95;;
64712;SDS011;51140;45.340;5.980;2023-12-14T05:33:05;21.15;;;12.98;;
64712;SDS011;51140;45.340;5.980;2023-12-14T05:35:30;19.65;;;13.18;;
64712;SDS011;51140;45.340;5.980;2023-12-14T05:37:56;19.58;;;13.13;;
64712;SDS011;51140;45.340;5.980;2023-12-14T05:40:21;20.75;;;13.82;;
64712;SDS011;51140;45.340;5.980;2023-12-14T05:42:47;18.98;;;12.63;;
64712;SDS011;51140;45.340;5.980;2023-12-14T05:45:12;19.27;;;12.40;;
64712;SDS011;51140;45.340;5.980;2023-12-14T05:47:38;18.80;;;11.20;;
64712;SDS011;51140;45.340;5.980;2023-12-14T05:50:03;18.60;;;11.25;;
64712;SDS011;51140;45.340;5.980;2023-12-14T05:52:29;17.58;;;10.50;;
64712;SDS011;51140;45.340;5.980;2023-12-14T05:54:55;16.85;;;9.98;;
64712;SDS011;51140;45.340;5.980;2023-12-14T05:57:21;12.85;;;7.57;;
64712;SDS011;51140;45.340;5.980;2023-12-14T05:59:46;13.02;;;7.30;;
64712;SDS011;51140;45.340;5.980;2023-12-14T06:02:11;14.57;;;8.70;;
64712;SDS011;51140;45.340;5.980;2023-12-14T06:04:37;12.40;;;7.28;;
64712;SDS011;51140;45.340;5.980;2023-12-14T06:07:02;12.70;;;6.07;;
64712;SDS011;51140;45.340;5.980;2023-12-14T06:09:28;11.23;;;5.68;;
64712;SDS011;51140;45.340;5.980;2023-12-14T06:12:03;9.25;;;5.53;;
64712;SDS011;51140;45.340;5.980;2023-12-14T06:14:29;9.65;;;5.32;;
64712;SDS011;51140;45.340;5.980;2023-12-14T06:16:54;11.23;;;5.22;;
64712;SDS011;51140;45.340;5.980;2023-12-14T06:19:20;8.70;;;4.60;;
64712;SDS011;51140;45.340;5.980;2023-12-14T06:21:46;8.30;;;4.20;;
64712;SDS011;51140;45.340;5.980;2023-12-14T06:24:12;7.90;;;4.20;;
64712;SDS011;51140;45.340;5.980;2023-12-14T06:26:41;7.28;;;3.70;;
64712;SDS011;51140;45.340;5.980;2023-12-14T06:29:08;7.15;;;3.53;;
64712;SDS011;51140;45.340;5.980;2023-12-14T06:31:33;7.60;;;3.72;;
64712;SDS011;51140;45.340;5.980;2023-12-14T06:33:58;7.13;;;3.17;;
64712;SDS011;51140;45.340;5.980;2023-12-14T06:36:25;7.85;;;3.15;;
64712;SDS011;51140;45.340;5.980;2023-12-14T06:38:54;7.22;;;3.60;;
64712;SDS011;51140;45.340;5.980;2023-12-14T06:41:20;6.78;;;2.90;;
64712;SDS011;51140;45.340;5.980;2023-12-14T06:43:49;7.28;;;2.70;;
64712;SDS011;51140;45.340;5.980;2023-12-14T06:46:14;6.32;;;2.45;;
64712;SDS011;51140;45.340;5.980;2023-12-14T06:48:40;6.97;;;2.58;;
64712;SDS011;51140;45.340;5.980;2023-12-14T06:51:06;6.85;;;2.47;;
64712;SDS011;51140;45.340;5.980;2023-12-14T06:53:31;6.10;;;2.45;;
64712;SDS011;51140;45.340;5.980;2023-12-14T06:55:57;9.48;;;4.65;;
64712;SDS011;51140;45.340;5.980;2023-12-14T06:58:22;8.82;;;4.40;;
64712;SDS011;51140;45.340;5.980;2023-12-14T07:00:48;8.52;;;3.20;;
64712;SDS011;51140;45.340;5.980;2023-12-14T07:03:13;7.18;;;3.88;;
64712;SDS011;51140;45.340;5.980;2023-12-14T07:05:39;8.90;;;4.80;;
64712;SDS011;51140;45.340;5.980;2023-12-14T07:08:04;5.30;;;2.42;;
64712;SDS011;51140;45.340;5.980;2023-12-14T07:10:30;5.88;;;2.10;;
64712;SDS011;51140;45.340;5.980;2023-12-14T07:12:55;4.78;;;2.00;;
64712;SDS011;51140;45.340;5.980;2023-12-14T07:15:20;5.22;;;2.25;;
64712;SDS011;51140;45.340;5.980;2023-12-14T07:17:46;5.43;;;2.10;;
64712;SDS011;51140;45.340;5.980;2023-12-14T07:20:11;6.55;;;2.00;;
64712;SDS011;51140;45.340;5.980;2023-12-14T07:22:37;5.22;;;2.15;;
64712;SDS011;51140;45.340;5.980;2023-12-14T07:25:03;8.80;;;4.40;;
64712;SDS011;51140;45.340;5.980;2023-12-14T07:27:28;7.38;;;4.05;;
64712;SDS011;51140;45.340;5.980;2023-12-14T07:29:54;5.88;;;2.70;;
64712;SDS011;51140;45.340;5.980;2023-12-14T07:32:19;6.45;;;3.00;;
64712;SDS011;51140;45.340;5.980;2023-12-14T07:34:45;5.50;;;2.80;;
64712;SDS011;51140;45.340;5.980;2023-12-14T07:37:10;6.60;;;2.80;;
64712;SDS011;51140;45.340;5.980;2023-12-14T07:39:36;8.95;;;3.20;;
64712;SDS011;51140;45.340;5.980;2023-12-14T07:42:02;8.75;;;2.90;;
64712;SDS011;51140;45.340;5.980;2023-12-14T07:44:28;7.65;;;3.50;;
64712;SDS011;51140;45.340;5.980;2023-12-14T07:46:55;6.78;;;3.03;;
64712;SDS011;51140;45.340;5.980;2023-12-14T07:49:21;6.80;;;3.30;;
64712;SDS011;51140;45.340;5.980;2023-12-14T07:51:48;6.20;;;3.20;;
64712;SDS011;51140;45.340;5.980;2023-12-14T07:54:13;8.40;;;3.28;;
64712;SDS011;51140;45.340;5.980;2023-12-14T07:56:39;7.38;;;3.13;;
64712;SDS011;51140;45.340;5.980;2023-12-14T07:59:05;8.05;;;3.45;;
64712;SDS011;51140;45.340;5.980;2023-12-14T08:01:32;8.60;;;4.22;;
64712;SDS011;51140;45.340;5.980;2023-12-14T08:04:01;8.90;;;5.20;;
64712;SDS011;51140;45.340;5.980;2023-12-14T08:06:27;8.50;;;4.55;;
64712;SDS011;51140;45.340;5.980;2023-12-14T08:08:53;7.95;;;4.10;;
64712;SDS011;51140;45.340;5.980;2023-12-14T08:11:18;7.35;;;4.00;;
64712;SDS011;51140;45.340;5.980;2023-12-14T08:13:43;11.43;;;7.15;;
64712;SDS011;51140;45.340;5.980;2023-12-14T08:16:09;11.85;;;7.13;;
64712;SDS011;51140;45.340;5.980;2023-12-14T08:18:36;9.95;;;5.65;;
64712;SDS011;51140;45.340;5.980;2023-12-14T08:21:01;10.25;;;6.15;;
64712;SDS011;51140;45.340;5.980;2023-12-14T08:23:27;10.32;;;4.82;;
64712;SDS011;51140;45.340;5.980;2023-12-14T08:25:55;10.25;;;5.50;;
64712;SDS011;51140;45.340;5.980;2023-12-14T08:28:24;12.65;;;7.93;;
64712;SDS011;51140;45.340;5.980;2023-12-14T08:30:50;23.40;;;17.20;;
64712;SDS011;51140;45.340;5.980;2023-12-14T08:33:16;28.10;;;19.60;;
64712;SDS011;51140;45.340;5.980;2023-12-14T08:35:42;24.95;;;18.25;;
64712;SDS011;51140;45.340;5.980;2023-12-14T08:38:07;29.50;;;20.88;;
64712;SDS011;51140;45.340;5.980;2023-12-14T08:40:32;23.48;;;16.15;;
64712;SDS011;51140;45.340;5.980;2023-12-14T08:42:58;23.35;;;14.45;;
64712;SDS011;51140;45.340;5.980;2023-12-14T08:45:23;14.50;;;10.48;;
64712;SDS011;51140;45.340;5.980;2023-12-14T08:47:49;19.02;;;13.73;;
64712;SDS011;51140;45.340;5.980;2023-12-14T08:50:14;17.83;;;10.55;;
64712;SDS011;51140;45.340;5.980;2023-12-14T08:52:40;15.82;;;9.45;;
64712;SDS011;51140;45.340;5.980;2023-12-14T08:55:05;17.02;;;9.07;;
64712;SDS011;51140;45.340;5.980;2023-12-14T08:57:31;14.63;;;9.07;;
64712;SDS011;51140;45.340;5.980;2023-12-14T08:59:59;17.10;;;9.77;;
64712;SDS011;51140;45.340;5.980;2023-12-14T09:02:26;16.50;;;10.10;;
64712;SDS011;51140;45.340;5.980;2023-12-14T09:04:51;15.60;;;8.73;;
64712;SDS011;51140;45.340;5.980;2023-12-14T09:07:17;18.20;;;9.70;;
64712;SDS011;51140;45.340;5.980;2023-12-14T09:09:42;15.32;;;9.40;;
64712;SDS011;51140;45.340;5.980;2023-12-14T09:12:08;15.90;;;9.02;;
64712;SDS011;51140;45.340;5.980;2023-12-14T09:14:34;14.27;;;8.63;;
64712;SDS011;51140;45.340;5.980;2023-12-14T09:17:00;14.70;;;8.18;;
64712;SDS011;51140;45.340;5.980;2023-12-14T09:19:25;17.08;;;10.32;;
64712;SDS011;51140;45.340;5.980;2023-12-14T09:21:50;14.80;;;9.30;;
64712;SDS011;51140;45.340;5.980;2023-12-14T09:24:16;22.92;;;11.73;;
64712;SDS011;51140;45.340;5.980;2023-12-14T09:26:42;15.65;;;9.45;;
64712;SDS011;51140;45.340;5.980;2023-12-14T09:29:08;13.75;;;8.95;;
64712;SDS011;51140;45.340;5.980;2023-12-14T09:31:33;13.90;;;8.45;;
64712;SDS011;51140;45.340;5.980;2023-12-14T09:33:58;12.70;;;8.30;;
64712;SDS011;51140;45.340;5.980;2023-12-14T09:36:24;13.55;;;9.43;;
64712;SDS011;51140;45.340;5.980;2023-12-14T09:38:49;13.13;;;9.25;;
64712;SDS011;51140;45.340;5.980;2023-12-14T09:41:15;14.68;;;8.88;;
64712;SDS011;51140;45.340;5.980;2023-12-14T09:43:41;16.02;;;9.68;;
64712;SDS011;51140;45.340;5.980;2023-12-14T09:46:07;13.77;;;8.55;;
64712;SDS011;51140;45.340;5.980;2023-12-14T09:48:33;13.77;;;9.35;;
64712;SDS011;51140;45.340;5.980;2023-12-14T09:50:59;14.15;;;8.93;;
64712;SDS011;51140;45.340;5.980;2023-12-14T09:53:24;13.73;;;8.50;;
64712;SDS011;51140;45.340;5.980;2023-12-14T09:55:49;13.93;;;8.70;;
64712;SDS011;51140;45.340;5.980;2023-12-14T09:58:15;9.30;;;5.70;;
64712;SDS011;51140;45.340;5.980;2023-12-14T10:00:41;43.65;;;22.92;;
64712;SDS011;51140;45.340;5.980;2023-12-14T10:03:18;45.25;;;24.25;;
64712;SDS011;51140;45.340;5.980;2023-12-14T10:05:48;15.68;;;8.95;;
64712;SDS011;51140;45.340;5.980;2023-12-14T10:08:14;10.73;;;6.35;;
64712;SDS011;51140;45.340;5.980;2023-12-14T10:10:41;29.58;;;16.50;;
64712;SDS011;51140;45.340;5.980;2023-12-14T10:13:07;14.77;;;8.90;;
64712;SDS011;51140;45.340;5.980;2023-12-14T10:15:45;9.48;;;5.60;;
64712;SDS011;51140;45.340;5.980;2023-12-14T10:18:21;10.82;;;5.75;;
64712;SDS011;51140;45.340;5.980;2023-12-14T10:20:48;10.85;;;5.18;;
64712;SDS011;51140;45.340;5.980;2023-12-14T10:23:14;7.95;;;4.28;;
64712;SDS011;51140;45.340;5.980;2023-12-14T10:25:39;10.10;;;4.80;;
64712;SDS011;51140;45.340;5.980;2023-12-14T10:28:04;10.90;;;5.45;;
64712;SDS011;51140;45.340;5.980;2023-12-14T10:30:30;10.98;;;5.68;;
64712;SDS011;51140;45.340;5.980;2023-12-14T10:32:56;10.43;;;5.50;;
64712;SDS011;51140;45.340;5.980;2023-12-14T10:35:22;9.05;;;5.25;;
64712;SDS011;51140;45.340;5.980;2023-12-14T10:37:52;8.93;;;4.30;;
64712;SDS011;51140;45.340;5.980;2023-12-14T10:40:17;7.80;;;4.35;;
64712;SDS011;51140;45.340;5.980;2023-12-14T10:42:43;10.75;;;5.63;;
64712;SDS011;51140;45.340;5.980;2023-12-14T10:45:10;10.25;;;6.53;;
64712;SDS011;51140;45.340;5.980;2023-12-14T10:47:43;14.00;;;6.15;;
64712;SDS011;51140;45.340;5.980;2023-12-14T10:50:08;11.23;;;5.88;;
64712;SDS011;51140;45.340;5.980;2023-12-14T10:52:36;8.27;;;4.30;;
64712;SDS011;51140;45.340;5.980;2023-12-14T10:55:04;5.35;;;2.78;;
64712;SDS011;51140;45.340;5.980;2023-12-14T10:57:33;7.35;;;3.20;;
64712;SDS011;51140;45.340;5.980;2023-12-14T10:59:59;6.82;;;3.33;;
64712;SDS011;51140;45.340;5.980;2023-12-14T11:02:25;10.02;;;4.68;;
64712;SDS011;51140;45.340;5.980;2023-12-14T11:04:59;13.27;;;7.30;;
64712;SDS011;51140;45.340;5.980;2023-12-14T11:07:43;10.25;;;4.70;;
64712;SDS011;51140;45.340;5.980;2023-12-14T11:10:20;11.77;;;4.97;;
64712;SDS011;51140;45.340;5.980;2023-12-14T11:12:54;8.10;;;3.85;;
64712;SDS011;51140;45.340;5.980;2023-12-14T11:15:30;6.97;;;3.50;;
64712;SDS011;51140;45.340;5.980;2023-12-14T11:18:43;4.50;;;2.08;;
64712;SDS011;51140;45.340;5.980;2023-12-14T11:23:16;5.90;;;1.90;;
64712;SDS011;51140;45.340;5.980;2023-12-14T11:26:04;4.47;;;1.30;;
64712;SDS011;51140;45.340;5.980;2023-12-14T11:28:35;4.78;;;1.40;;
64712;SDS011;51140;45.340;5.980;2023-12-14T11:31:02;2.90;;;1.20;;
64712;SDS011;51140;45.340;5.980;2023-12-14T11:33:32;4.15;;;1.40;;
64712;SDS011;51140;45.340;5.980;2023-12-14T11:35:58;3.65;;;1.40;;
64712;SDS011;51140;45.340;5.980;2023-12-14T11:38:24;4.10;;;1.50;;
64712;SDS011;51140;45.340;5.980;2023-12-14T11:40:49;5.03;;;1.83;;
64712;SDS011;51140;45.340;5.980;2023-12-14T11:43:15;4.25;;;2.03;;
64712;SDS011;51140;45.340;5.980;2023-12-14T11:45:40;4.20;;;1.30;;
64712;SDS011;51140;45.340;5.980;2023-12-14T11:48:07;4.60;;;1.63;;
64712;SDS011;51140;45.340;5.980;2023-12-14T11:50:35;5.18;;;2.00;;
64712;SDS011;51140;45.340;5.980;2023-12-14T11:53:01;4.28;;;1.73;;
64712;SDS011;51140;45.340;5.980;2023-12-14T11:55:28;4.18;;;1.63;;
64712;SDS011;51140;45.340;5.980;2023-12-14T11:57:57;3.70;;;1.55;;
64712;SDS011;51140;45.340;5.980;2023-12-14T12:00:24;2.35;;;0.88;;
64712;SDS011;51140;45.340;5.980;2023-12-14T12:05:47;4.90;;;1.80;;
64712;SDS011;51140;45.340;5.980;2023-12-14T12:08:15;8.65;;;3.92;;
64712;SDS011;51140;45.340;5.980;2023-12-14T12:10:43;13.10;;;7.78;;
64712;SDS011;51140;45.340;5.980;2023-12-14T12:13:16;5.10;;;2.15;;
64712;SDS011;51140;45.340;5.980;2023-12-14T12:15:43;22.35;;;19.20;;
64712;SDS011;51140;45.340;5.980;2023-12-14T12:18:10;55.13;;;39.03;;
64712;SDS011;51140;45.340;5.980;2023-12-14T12:20:40;81.18;;;52.83;;
64712;SDS011;51140;45.340;5.980;2023-12-14T12:23:05;13.63;;;6.85;;
64712;SDS011;51140;45.340;5.980;2023-12-14T12:25:31;7.45;;;4.10;;
64712;SDS011;51140;45.340;5.980;2023-12-14T12:27:58;7.57;;;4.15;;
64712;SDS011;51140;45.340;5.980;2023-12-14T12:30:25;8.50;;;4.80;;
64712;SDS011;51140;45.340;5.980;2023-12-14T12:32:51;7.35;;;4.03;;
64712;SDS011;51140;45.340;5.980;2023-12-14T12:35:17;8.43;;;4.65;;
64712;SDS011;51140;45.340;5.980;2023-12-14T12:37:43;5.22;;;2.20;;
64712;SDS011;51140;45.340;5.980;2023-12-14T12:40:09;4.20;;;1.80;;
64712;SDS011;51140;45.340;5.980;2023-12-14T12:42:35;4.82;;;1.90;;
64712;SDS011;51140;45.340;5.980;2023-12-14T12:45:00;5.63;;;2.47;;
64712;SDS011;51140;45.340;5.980;2023-12-14T12:47:26;5.85;;;2.60;;
64712;SDS011;51140;45.340;5.980;2023-12-14T12:49:51;7.05;;;3.05;;
64712;SDS011;51140;45.340;5.980;2023-12-14T12:52:17;7.78;;;2.80;;
64712;SDS011;51140;45.340;5.980;2023-12-14T12:54:43;6.53;;;3.45;;
64712;SDS011;51140;45.340;5.980;2023-12-14T12:57:08;6.00;;;1.70;;
64712;SDS011;51140;45.340;5.980;2023-12-14T12:59:33;4.38;;;1.60;;
64712;SDS011;51140;45.340;5.980;2023-12-14T13:01:59;4.20;;;1.58;;
64712;SDS011;51140;45.340;5.980;2023-12-14T13:04:24;3.00;;;1.33;;
64712;SDS011;51140;45.340;5.980;2023-12-14T13:06:51;5.22;;;2.67;;
64712;SDS011;51140;45.340;5.980;2023-12-14T13:09:17;4.93;;;1.75;;
64712;SDS011;51140;45.340;5.980;2023-12-14T13:11:43;4.93;;;2.13;;
64712;SDS011;51140;45.340;5.980;2023-12-14T13:14:09;7.40;;;2.90;;
64712;SDS011;51140;45.340;5.980;2023-12-14T13:16:35;4.47;;;1.50;;
64712;SDS011;51140;45.340;5.980;2023-12-14T13:19:01;5.85;;;2.83;;
64712;SDS011;51140;45.340;5.980;2023-12-14T13:21:28;5.13;;;2.70;;
64712;SDS011;51140;45.340;5.980;2023-12-14T13:23:54;6.50;;;2.53;;
64712;SDS011;51140;45.340;5.980;2023-12-14T13:26:21;4.35;;;2.13;;
64712;SDS011;51140;45.340;5.980;2023-12-14T13:28:47;5.65;;;2.25;;
64712;SDS011;51140;45.340;5.980;2023-12-14T13:31:12;6.13;;;2.80;;
64712;SDS011;51140;45.340;5.980;2023-12-14T13:33:38;3.47;;;1.42;;
64712;SDS011;51140;45.340;5.980;2023-12-14T13:36:03;7.22;;;3.75;;
64712;SDS011;51140;45.340;5.980;2023-12-14T13:38:29;6.30;;;2.75;;
64712;SDS011;51140;45.340;5.980;2023-12-14T13:40:56;4.60;;;1.80;;
64712;SDS011;51140;45.340;5.980;2023-12-14T13:43:21;6.00;;;2.97;;
64712;SDS011;51140;45.340;5.980;2023-12-14T13:45:47;6.93;;;3.03;;
64712;SDS011;51140;45.340;5.980;2023-12-14T13:48:12;7.47;;;3.20;;
64712;SDS011;51140;45.340;5.980;2023-12-14T13:50:38;11.07;;;5.60;;
64712;SDS011;51140;45.340;5.980;2023-12-14T13:53:03;58.78;;;34.88;;
64712;SDS011;51140;45.340;5.980;2023-12-14T13:55:29;11.02;;;5.60;;
64712;SDS011;51140;45.340;5.980;2023-12-14T13:57:55;11.45;;;6.28;;
64712;SDS011;51140;45.340;5.980;2023-12-14T14:00:23;9.10;;;5.75;;
64712;SDS011;51140;45.340;5.980;2023-12-14T14:02:49;4.68;;;1.80;;
64712;SDS011;51140;45.340;5.980;2023-12-14T14:05:14;35.90;;;22.38;;
64712;SDS011;51140;45.340;5.980;2023-12-14T14:07:40;8.25;;;3.90;;
64712;SDS011;51140;45.340;5.980;2023-12-14T14:10:06;6.95;;;2.60;;
64712;SDS011;51140;45.340;5.980;2023-12-14T14:12:32;8.50;;;4.30;;
64712;SDS011;51140;45.340;5.980;2023-12-14T14:14:57;8.60;;;3.75;;
64712;SDS011;51140;45.340;5.980;2023-12-14T14:17:22;9.23;;;3.28;;
64712;SDS011;51140;45.340;5.980;2023-12-14T14:19:48;6.10;;;1.55;;
64712;SDS011;51140;45.340;5.980;2023-12-14T14:22:13;5.13;;;1.27;;
64712;SDS011;51140;45.340;5.980;2023-12-14T14:24:38;4.35;;;1.45;;
64712;SDS011;51140;45.340;5.980;2023-12-14T14:27:04;8.15;;;2.40;;
64712;SDS011;51140;45.340;5.980;2023-12-14T14:29:29;3.97;;;1.60;;
64712;SDS011;51140;45.340;5.980;2023-12-14T14:31:55;6.75;;;3.78;;
64712;SDS011;51140;45.340;5.980;2023-12-14T14:34:20;3.90;;;1.60;;